Japan Airlines Virtual Airport Information Service

Kagoshima Airport

ICAO: RJFK Country: Japan
Latitude: 31.8034 Longitude: 130.719
Latest Arrival : JA480A (RJFM-RJFK) Latest Departure : JAL652 (RJFK-RJTT)


WX CaptureLIVE
Data provided by noaa.gov | Fetched at 15:34:16

METAR : RJFK 231100Z 10005KT 9999 FEW020 BKN/// 17/15 Q1016 RMK 1CU020 A3000

TAF : RJFK 231105Z 2312/2418 10009KT 9999 FEW020 SCT030 TEMPO 2322/2406 09015G26KT BECMG 2412/2415 34005KT


Runway Data for RJFK
Data provided by openaviationdata.com

Runway ID Mag Var Hdg Length Elevation Surface ILS Freq ILS Id ILS Slope
16 -6 156° 9856 ft 892 ft Asphalt -- -- --
34 -6 336° 9856 ft 892 ft Asphalt 111.7 IKG 3

Kagoshima Airport, Japan
Use only for reference purposes



Not for navigational purposes.